Apache Junction, Arizona
Current Conditions -  °F | °C
As of 2:15 AM on Sunday 21 Dec 2014 (Local Time) from KIWA Reporting Station
Clear Clear  
Wind Chill:   Ceiling: Unl
Heat Index:   Visibility: 10mi
Dew Point:   Wind: 6mph
Humidity: 87%   Direction: 120°ESE
Pressure: 30.13"   Gusts: NA
Location:  33.42°N, 111.54°W
Report Text: KIWA 210915Z AUTO 12005KT 10SM CLR 06/04 A3013 RMK AO2
Loading
Personal Weather Stations






























Interactive Weather Map New forecast layout! Learn more

10-Day Weather Forecast

Advertisements
Track Severe Weather on mobile